sensor_id;sensor_type;location;lat;lon;timestamp;P1;durP1;ratioP1;P2;durP2;ratioP2
4810;SDS011;2419;51.276;6.472;2024-03-06T00:02:07;23.20;;;12.17;;
4810;SDS011;2419;51.276;6.472;2024-03-06T00:04:36;24.83;;;12.73;;
4810;SDS011;2419;51.276;6.472;2024-03-06T00:07:05;28.83;;;13.77;;
4810;SDS011;2419;51.276;6.472;2024-03-06T00:09:33;26.90;;;13.37;;
4810;SDS011;2419;51.276;6.472;2024-03-06T00:12:03;24.83;;;13.20;;
4810;SDS011;2419;51.276;6.472;2024-03-06T00:14:32;27.20;;;14.00;;
4810;SDS011;2419;51.276;6.472;2024-03-06T00:17:04;25.13;;;14.03;;
4810;SDS011;2419;51.276;6.472;2024-03-06T00:19:33;21.67;;;11.70;;
4810;SDS011;2419;51.276;6.472;2024-03-06T00:22:02;22.73;;;12.90;;
4810;SDS011;2419;51.276;6.472;2024-03-06T00:24:30;25.40;;;13.30;;
4810;SDS011;2419;51.276;6.472;2024-03-06T00:26:59;25.57;;;12.70;;
4810;SDS011;2419;51.276;6.472;2024-03-06T00:29:28;22.57;;;11.70;;
4810;SDS011;2419;51.276;6.472;2024-03-06T00:31:59;24.70;;;11.00;;
4810;SDS011;2419;51.276;6.472;2024-03-06T00:34:29;19.90;;;11.60;;
4810;SDS011;2419;51.276;6.472;2024-03-06T00:36:57;22.40;;;11.70;;
4810;SDS011;2419;51.276;6.472;2024-03-06T00:39:25;21.23;;;8.43;;
4810;SDS011;2419;51.276;6.472;2024-03-06T00:41:53;44.97;;;6.80;;
4810;SDS011;2419;51.276;6.472;2024-03-06T00:44:21;26.77;;;6.07;;
4810;SDS011;2419;51.276;6.472;2024-03-06T00:46:49;26.40;;;5.90;;
4810;SDS011;2419;51.276;6.472;2024-03-06T00:49:17;10.87;;;7.30;;
4810;SDS011;2419;51.276;6.472;2024-03-06T00:51:46;9.60;;;6.97;;
4810;SDS011;2419;51.276;6.472;2024-03-06T00:54:15;10.17;;;6.20;;
4810;SDS011;2419;51.276;6.472;2024-03-06T00:56:43;33.70;;;7.53;;
4810;SDS011;2419;51.276;6.472;2024-03-06T00:59:11;12.30;;;6.63;;
4810;SDS011;2419;51.276;6.472;2024-03-06T01:01:39;17.10;;;9.60;;
4810;SDS011;2419;51.276;6.472;2024-03-06T01:04:08;13.03;;;8.57;;
4810;SDS011;2419;51.276;6.472;2024-03-06T01:06:36;13.67;;;8.13;;
4810;SDS011;2419;51.276;6.472;2024-03-06T01:09:05;16.13;;;9.60;;
4810;SDS011;2419;51.276;6.472;2024-03-06T01:11:33;15.33;;;8.60;;
4810;SDS011;2419;51.276;6.472;2024-03-06T01:14:01;13.90;;;8.33;;
4810;SDS011;2419;51.276;6.472;2024-03-06T01:16:30;14.93;;;8.73;;
4810;SDS011;2419;51.276;6.472;2024-03-06T01:18:58;15.97;;;8.93;;
4810;SDS011;2419;51.276;6.472;2024-03-06T01:21:26;21.10;;;10.80;;
4810;SDS011;2419;51.276;6.472;2024-03-06T01:23:55;19.37;;;10.30;;
4810;SDS011;2419;51.276;6.472;2024-03-06T01:26:24;18.83;;;11.77;;
4810;SDS011;2419;51.276;6.472;2024-03-06T01:28:52;22.70;;;10.67;;
4810;SDS011;2419;51.276;6.472;2024-03-06T01:31:21;17.20;;;10.30;;
4810;SDS011;2419;51.276;6.472;2024-03-06T01:33:49;18.20;;;9.33;;
4810;SDS011;2419;51.276;6.472;2024-03-06T01:36:17;19.50;;;10.60;;
4810;SDS011;2419;51.276;6.472;2024-03-06T01:38:45;19.17;;;9.17;;
4810;SDS011;2419;51.276;6.472;2024-03-06T01:41:13;20.17;;;9.40;;
4810;SDS011;2419;51.276;6.472;2024-03-06T01:43:43;19.57;;;9.43;;
4810;SDS011;2419;51.276;6.472;2024-03-06T01:46:11;22.70;;;12.70;;
4810;SDS011;2419;51.276;6.472;2024-03-06T01:48:39;23.33;;;12.67;;
4810;SDS011;2419;51.276;6.472;2024-03-06T01:51:09;25.33;;;12.40;;
4810;SDS011;2419;51.276;6.472;2024-03-06T01:53:37;29.13;;;13.50;;
4810;SDS011;2419;51.276;6.472;2024-03-06T01:56:06;26.70;;;13.87;;
4810;SDS011;2419;51.276;6.472;2024-03-06T01:58:38;28.93;;;13.27;;
4810;SDS011;2419;51.276;6.472;2024-03-06T02:01:08;32.57;;;13.53;;
4810;SDS011;2419;51.276;6.472;2024-03-06T02:03:36;24.10;;;12.53;;
4810;SDS011;2419;51.276;6.472;2024-03-06T02:06:05;26.30;;;12.60;;
4810;SDS011;2419;51.276;6.472;2024-03-06T02:08:35;21.33;;;11.10;;
4810;SDS011;2419;51.276;6.472;2024-03-06T02:11:03;26.27;;;12.70;;
4810;SDS011;2419;51.276;6.472;2024-03-06T02:13:33;28.17;;;12.57;;
4810;SDS011;2419;51.276;6.472;2024-03-06T02:16:01;19.20;;;11.70;;
4810;SDS011;2419;51.276;6.472;2024-03-06T02:18:31;25.03;;;12.70;;
4810;SDS011;2419;51.276;6.472;2024-03-06T02:21:01;26.00;;;13.40;;
4810;SDS011;2419;51.276;6.472;2024-03-06T02:23:29;26.80;;;12.10;;
4810;SDS011;2419;51.276;6.472;2024-03-06T02:25:57;23.60;;;12.50;;
4810;SDS011;2419;51.276;6.472;2024-03-06T02:28:25;25.77;;;12.43;;
4810;SDS011;2419;51.276;6.472;2024-03-06T02:30:53;20.67;;;11.50;;
4810;SDS011;2419;51.276;6.472;2024-03-06T02:33:21;29.13;;;12.70;;
4810;SDS011;2419;51.276;6.472;2024-03-06T02:35:49;27.93;;;15.30;;
4810;SDS011;2419;51.276;6.472;2024-03-06T02:38:19;21.77;;;13.73;;
4810;SDS011;2419;51.276;6.472;2024-03-06T02:40:47;24.83;;;13.23;;
4810;SDS011;2419;51.276;6.472;2024-03-06T02:43:15;25.23;;;13.10;;
4810;SDS011;2419;51.276;6.472;2024-03-06T02:45:43;27.03;;;12.33;;
4810;SDS011;2419;51.276;6.472;2024-03-06T02:48:10;24.13;;;12.37;;
4810;SDS011;2419;51.276;6.472;2024-03-06T02:50:39;23.17;;;12.97;;
4810;SDS011;2419;51.276;6.472;2024-03-06T02:53:07;26.27;;;13.70;;
4810;SDS011;2419;51.276;6.472;2024-03-06T02:55:36;22.47;;;12.27;;
4810;SDS011;2419;51.276;6.472;2024-03-06T02:58:04;24.93;;;13.40;;
4810;SDS011;2419;51.276;6.472;2024-03-06T03:00:32;27.63;;;14.13;;
4810;SDS011;2419;51.276;6.472;2024-03-06T03:03:00;23.50;;;13.00;;
4810;SDS011;2419;51.276;6.472;2024-03-06T03:05:28;26.70;;;13.83;;
4810;SDS011;2419;51.276;6.472;2024-03-06T03:07:57;26.10;;;11.93;;
4810;SDS011;2419;51.276;6.472;2024-03-06T03:10:25;21.57;;;11.10;;
4810;SDS011;2419;51.276;6.472;2024-03-06T03:12:54;21.57;;;11.17;;
4810;SDS011;2419;51.276;6.472;2024-03-06T03:15:22;21.53;;;11.60;;
4810;SDS011;2419;51.276;6.472;2024-03-06T03:17:50;22.87;;;11.53;;
4810;SDS011;2419;51.276;6.472;2024-03-06T03:20:19;31.40;;;13.20;;
4810;SDS011;2419;51.276;6.472;2024-03-06T03:22:47;21.40;;;12.37;;
4810;SDS011;2419;51.276;6.472;2024-03-06T03:25:15;22.37;;;12.83;;
4810;SDS011;2419;51.276;6.472;2024-03-06T03:27:43;20.73;;;10.13;;
4810;SDS011;2419;51.276;6.472;2024-03-06T03:30:13;23.40;;;11.97;;
4810;SDS011;2419;51.276;6.472;2024-03-06T03:32:42;19.00;;;10.43;;
4810;SDS011;2419;51.276;6.472;2024-03-06T03:35:11;21.93;;;10.67;;
4810;SDS011;2419;51.276;6.472;2024-03-06T03:37:40;22.03;;;11.60;;
4810;SDS011;2419;51.276;6.472;2024-03-06T03:40:10;17.70;;;10.40;;
4810;SDS011;2419;51.276;6.472;2024-03-06T03:42:38;19.70;;;11.80;;
4810;SDS011;2419;51.276;6.472;2024-03-06T03:45:06;97.90;;;13.47;;
4810;SDS011;2419;51.276;6.472;2024-03-06T03:47:37;19.73;;;11.37;;
4810;SDS011;2419;51.276;6.472;2024-03-06T03:50:05;51.73;;;13.17;;
4810;SDS011;2419;51.276;6.472;2024-03-06T03:52:37;30.57;;;9.27;;
4810;SDS011;2419;51.276;6.472;2024-03-06T03:55:09;36.93;;;10.53;;
4810;SDS011;2419;51.276;6.472;2024-03-06T03:57:37;62.53;;;12.40;;
4810;SDS011;2419;51.276;6.472;2024-03-06T04:00:06;37.97;;;11.90;;
4810;SDS011;2419;51.276;6.472;2024-03-06T04:02:39;23.70;;;10.80;;
4810;SDS011;2419;51.276;6.472;2024-03-06T04:05:08;49.97;;;12.10;;
4810;SDS011;2419;51.276;6.472;2024-03-06T04:07:37;15.87;;;10.27;;
4810;SDS011;2419;51.276;6.472;2024-03-06T04:10:06;22.90;;;10.30;;
4810;SDS011;2419;51.276;6.472;2024-03-06T04:12:37;23.57;;;9.03;;
4810;SDS011;2419;51.276;6.472;2024-03-06T04:15:06;27.27;;;9.97;;
4810;SDS011;2419;51.276;6.472;2024-03-06T04:17:35;28.80;;;9.50;;
4810;SDS011;2419;51.276;6.472;2024-03-06T04:20:05;36.10;;;9.43;;
4810;SDS011;2419;51.276;6.472;2024-03-06T04:22:34;31.37;;;9.47;;
4810;SDS011;2419;51.276;6.472;2024-03-06T04:25:02;35.67;;;10.07;;
4810;SDS011;2419;51.276;6.472;2024-03-06T04:27:31;27.63;;;9.80;;
4810;SDS011;2419;51.276;6.472;2024-03-06T04:29:59;36.73;;;9.23;;
4810;SDS011;2419;51.276;6.472;2024-03-06T04:32:27;20.20;;;10.20;;
4810;SDS011;2419;51.276;6.472;2024-03-06T04:34:55;42.83;;;11.60;;
4810;SDS011;2419;51.276;6.472;2024-03-06T04:37:25;39.03;;;10.07;;
4810;SDS011;2419;51.276;6.472;2024-03-06T04:39:55;19.63;;;9.63;;
4810;SDS011;2419;51.276;6.472;2024-03-06T04:42:23;24.47;;;10.83;;
4810;SDS011;2419;51.276;6.472;2024-03-06T04:44:51;18.10;;;10.50;;
4810;SDS011;2419;51.276;6.472;2024-03-06T04:47:19;16.63;;;9.70;;
4810;SDS011;2419;51.276;6.472;2024-03-06T04:49:48;16.57;;;9.63;;
4810;SDS011;2419;51.276;6.472;2024-03-06T04:52:16;18.83;;;8.43;;
4810;SDS011;2419;51.276;6.472;2024-03-06T04:54:46;15.60;;;8.90;;
4810;SDS011;2419;51.276;6.472;2024-03-06T04:57:14;28.63;;;9.70;;
4810;SDS011;2419;51.276;6.472;2024-03-06T04:59:42;14.87;;;9.57;;
4810;SDS011;2419;51.276;6.472;2024-03-06T05:02:10;15.07;;;10.03;;
4810;SDS011;2419;51.276;6.472;2024-03-06T05:04:38;16.90;;;9.77;;
4810;SDS011;2419;51.276;6.472;2024-03-06T05:07:23;18.73;;;10.40;;
4810;SDS011;2419;51.276;6.472;2024-03-06T05:10:09;19.90;;;11.13;;
4810;SDS011;2419;51.276;6.472;2024-03-06T05:12:55;20.83;;;11.57;;
4810;SDS011;2419;51.276;6.472;2024-03-06T05:15:41;22.87;;;11.80;;
4810;SDS011;2419;51.276;6.472;2024-03-06T05:18:26;28.27;;;11.53;;
4810;SDS011;2419;51.276;6.472;2024-03-06T05:21:12;32.33;;;12.07;;
4810;SDS011;2419;51.276;6.472;2024-03-06T05:23:58;29.87;;;12.00;;
4810;SDS011;2419;51.276;6.472;2024-03-06T05:26:45;22.63;;;10.53;;
4810;SDS011;2419;51.276;6.472;2024-03-06T05:29:30;48.23;;;12.17;;
4810;SDS011;2419;51.276;6.472;2024-03-06T05:32:16;22.40;;;10.43;;
4810;SDS011;2419;51.276;6.472;2024-03-06T05:35:02;30.43;;;11.33;;
4810;SDS011;2419;51.276;6.472;2024-03-06T05:37:48;18.67;;;11.00;;
4810;SDS011;2419;51.276;6.472;2024-03-06T05:40:34;17.93;;;9.57;;
4810;SDS011;2419;51.276;6.472;2024-03-06T05:43:22;17.27;;;10.60;;
4810;SDS011;2419;51.276;6.472;2024-03-06T05:46:08;12.93;;;9.37;;
4810;SDS011;2419;51.276;6.472;2024-03-06T05:48:53;14.93;;;9.83;;
4810;SDS011;2419;51.276;6.472;2024-03-06T05:51:39;20.93;;;11.47;;
4810;SDS011;2419;51.276;6.472;2024-03-06T05:54:25;22.03;;;12.03;;
4810;SDS011;2419;51.276;6.472;2024-03-06T05:57:11;18.23;;;10.57;;
4810;SDS011;2419;51.276;6.472;2024-03-06T05:59:58;20.03;;;10.90;;
4810;SDS011;2419;51.276;6.472;2024-03-06T06:02:26;19.60;;;10.90;;
4810;SDS011;2419;51.276;6.472;2024-03-06T06:04:54;19.23;;;10.80;;
4810;SDS011;2419;51.276;6.472;2024-03-06T06:07:42;19.43;;;11.90;;
4810;SDS011;2419;51.276;6.472;2024-03-06T06:10:10;17.37;;;11.50;;
4810;SDS011;2419;51.276;6.472;2024-03-06T06:12:38;23.20;;;11.23;;
4810;SDS011;2419;51.276;6.472;2024-03-06T06:15:08;16.23;;;10.50;;
4810;SDS011;2419;51.276;6.472;2024-03-06T06:17:37;18.77;;;10.33;;
4810;SDS011;2419;51.276;6.472;2024-03-06T06:20:06;20.17;;;11.70;;
4810;SDS011;2419;51.276;6.472;2024-03-06T06:22:36;18.60;;;11.33;;
4810;SDS011;2419;51.276;6.472;2024-03-06T06:25:04;19.17;;;11.37;;
4810;SDS011;2419;51.276;6.472;2024-03-06T06:27:33;17.90;;;10.73;;
4810;SDS011;2419;51.276;6.472;2024-03-06T06:30:01;19.63;;;11.10;;
4810;SDS011;2419;51.276;6.472;2024-03-06T06:32:34;20.83;;;11.90;;
4810;SDS011;2419;51.276;6.472;2024-03-06T06:35:02;21.63;;;10.83;;
4810;SDS011;2419;51.276;6.472;2024-03-06T06:37:32;16.07;;;11.17;;
4810;SDS011;2419;51.276;6.472;2024-03-06T06:40:00;16.63;;;10.80;;
4810;SDS011;2419;51.276;6.472;2024-03-06T06:42:33;18.60;;;11.37;;
4810;SDS011;2419;51.276;6.472;2024-03-06T06:45:02;21.70;;;9.73;;
4810;SDS011;2419;51.276;6.472;2024-03-06T06:47:31;18.30;;;10.30;;
4810;SDS011;2419;51.276;6.472;2024-03-06T06:50:00;18.87;;;10.10;;
4810;SDS011;2419;51.276;6.472;2024-03-06T06:52:32;13.40;;;9.17;;
4810;SDS011;2419;51.276;6.472;2024-03-06T06:55:01;15.57;;;9.57;;
4810;SDS011;2419;51.276;6.472;2024-03-06T06:57:30;16.37;;;10.40;;
4810;SDS011;2419;51.276;6.472;2024-03-06T06:59:59;12.73;;;9.10;;
4810;SDS011;2419;51.276;6.472;2024-03-06T07:02:27;15.53;;;9.97;;
4810;SDS011;2419;51.276;6.472;2024-03-06T07:04:56;17.83;;;10.10;;
4810;SDS011;2419;51.276;6.472;2024-03-06T07:07:26;14.47;;;8.40;;
4810;SDS011;2419;51.276;6.472;2024-03-06T07:09:54;17.93;;;9.97;;
4810;SDS011;2419;51.276;6.472;2024-03-06T07:12:23;14.83;;;9.63;;
4810;SDS011;2419;51.276;6.472;2024-03-06T07:14:51;16.80;;;9.70;;
4810;SDS011;2419;51.276;6.472;2024-03-06T07:17:19;18.80;;;11.53;;
4810;SDS011;2419;51.276;6.472;2024-03-06T07:19:47;18.60;;;9.43;;
4810;SDS011;2419;51.276;6.472;2024-03-06T07:22:16;16.63;;;10.37;;
4810;SDS011;2419;51.276;6.472;2024-03-06T07:24:46;18.10;;;10.77;;
4810;SDS011;2419;51.276;6.472;2024-03-06T07:27:14;23.23;;;11.40;;
4810;SDS011;2419;51.276;6.472;2024-03-06T07:29:42;15.87;;;9.50;;
4810;SDS011;2419;51.276;6.472;2024-03-06T07:32:10;24.10;;;10.50;;
4810;SDS011;2419;51.276;6.472;2024-03-06T07:34:38;22.30;;;11.17;;
4810;SDS011;2419;51.276;6.472;2024-03-06T07:37:06;24.03;;;10.83;;
4810;SDS011;2419;51.276;6.472;2024-03-06T07:39:34;14.30;;;9.03;;
4810;SDS011;2419;51.276;6.472;2024-03-06T07:42:04;16.67;;;9.03;;
4810;SDS011;2419;51.276;6.472;2024-03-06T07:44:32;18.13;;;7.53;;
4810;SDS011;2419;51.276;6.472;2024-03-06T07:47:01;16.67;;;7.70;;
4810;SDS011;2419;51.276;6.472;2024-03-06T07:49:30;15.97;;;7.73;;
4810;SDS011;2419;51.276;6.472;2024-03-06T07:51:58;10.40;;;6.17;;
4810;SDS011;2419;51.276;6.472;2024-03-06T07:54:26;8.67;;;5.23;;
4810;SDS011;2419;51.276;6.472;2024-03-06T07:56:54;9.63;;;6.30;;
4810;SDS011;2419;51.276;6.472;2024-03-06T07:59:24;9.10;;;5.80;;
4810;SDS011;2419;51.276;6.472;2024-03-06T08:01:52;9.60;;;6.37;;
4810;SDS011;2419;51.276;6.472;2024-03-06T08:04:22;10.40;;;5.70;;
4810;SDS011;2419;51.276;6.472;2024-03-06T08:06:50;9.00;;;5.47;;
4810;SDS011;2419;51.276;6.472;2024-03-06T08:09:18;10.23;;;5.97;;
4810;SDS011;2419;51.276;6.472;2024-03-06T08:11:47;15.10;;;6.33;;
4810;SDS011;2419;51.276;6.472;2024-03-06T08:14:15;12.20;;;6.20;;
4810;SDS011;2419;51.276;6.472;2024-03-06T08:16:45;9.80;;;5.47;;
4810;SDS011;2419;51.276;6.472;2024-03-06T08:19:13;9.60;;;6.27;;
4810;SDS011;2419;51.276;6.472;2024-03-06T08:21:42;19.27;;;6.37;;
4810;SDS011;2419;51.276;6.472;2024-03-06T08:24:10;8.93;;;5.90;;
4810;SDS011;2419;51.276;6.472;2024-03-06T08:26:38;10.33;;;6.30;;
4810;SDS011;2419;51.276;6.472;2024-03-06T08:29:06;12.17;;;6.57;;
4810;SDS011;2419;51.276;6.472;2024-03-06T08:31:34;8.20;;;5.83;;
4810;SDS011;2419;51.276;6.472;2024-03-06T08:34:04;8.50;;;5.80;;
4810;SDS011;2419;51.276;6.472;2024-03-06T08:36:32;10.07;;;6.13;;
4810;SDS011;2419;51.276;6.472;2024-03-06T08:39:01;8.37;;;5.83;;
4810;SDS011;2419;51.276;6.472;2024-03-06T08:41:29;9.67;;;4.60;;
4810;SDS011;2419;51.276;6.472;2024-03-06T08:43:57;4.77;;;4.27;;
4810;SDS011;2419;51.276;6.472;2024-03-06T08:46:26;5.30;;;3.80;;
4810;SDS011;2419;51.276;6.472;2024-03-06T08:48:54;5.23;;;4.40;;
4810;SDS011;2419;51.276;6.472;2024-03-06T08:51:23;6.67;;;4.57;;
4810;SDS011;2419;51.276;6.472;2024-03-06T08:53:52;6.13;;;4.40;;
4810;SDS011;2419;51.276;6.472;2024-03-06T08:56:20;6.00;;;4.03;;
4810;SDS011;2419;51.276;6.472;2024-03-06T08:58:48;5.83;;;3.97;;
4810;SDS011;2419;51.276;6.472;2024-03-06T09:01:16;10.60;;;4.30;;
4810;SDS011;2419;51.276;6.472;2024-03-06T09:03:44;5.17;;;4.27;;
4810;SDS011;2419;51.276;6.472;2024-03-06T09:06:12;8.60;;;4.97;;
4810;SDS011;2419;51.276;6.472;2024-03-06T09:08:41;8.20;;;4.67;;
4810;SDS011;2419;51.276;6.472;2024-03-06T09:11:09;5.70;;;4.30;;
4810;SDS011;2419;51.276;6.472;2024-03-06T09:13:38;7.67;;;4.50;;
4810;SDS011;2419;51.276;6.472;2024-03-06T09:16:07;9.60;;;5.60;;
4810;SDS011;2419;51.276;6.472;2024-03-06T09:18:35;8.30;;;4.80;;
4810;SDS011;2419;51.276;6.472;2024-03-06T09:21:03;7.87;;;4.63;;
4810;SDS011;2419;51.276;6.472;2024-03-06T09:23:31;7.60;;;5.47;;
4810;SDS011;2419;51.276;6.472;2024-03-06T09:26:01;9.00;;;5.43;;
4810;SDS011;2419;51.276;6.472;2024-03-06T09:28:29;8.33;;;4.70;;
4810;SDS011;2419;51.276;6.472;2024-03-06T09:30:57;11.23;;;4.47;;
4810;SDS011;2419;51.276;6.472;2024-03-06T09:33:26;9.23;;;5.10;;
4810;SDS011;2419;51.276;6.472;2024-03-06T09:35:54;7.93;;;5.60;;
4810;SDS011;2419;51.276;6.472;2024-03-06T09:38:23;7.23;;;5.20;;
4810;SDS011;2419;51.276;6.472;2024-03-06T09:40:53;7.63;;;5.60;;
4810;SDS011;2419;51.276;6.472;2024-03-06T09:43:24;10.37;;;4.67;;
4810;SDS011;2419;51.276;6.472;2024-03-06T09:45:57;9.93;;;5.13;;
4810;SDS011;2419;51.276;6.472;2024-03-06T09:48:25;6.50;;;5.13;;
4810;SDS011;2419;51.276;6.472;2024-03-06T09:50:53;6.10;;;4.70;;
4810;SDS011;2419;51.276;6.472;2024-03-06T09:53:25;9.93;;;6.43;;
4810;SDS011;2419;51.276;6.472;2024-03-06T09:55:54;9.20;;;6.07;;
4810;SDS011;2419;51.276;6.472;2024-03-06T09:58:25;9.07;;;5.90;;
4810;SDS011;2419;51.276;6.472;2024-03-06T10:00:53;8.23;;;5.50;;
4810;SDS011;2419;51.276;6.472;2024-03-06T10:03:24;9.17;;;5.90;;
4810;SDS011;2419;51.276;6.472;2024-03-06T10:05:53;10.93;;;6.13;;
4810;SDS011;2419;51.276;6.472;2024-03-06T10:08:22;7.43;;;5.77;;
4810;SDS011;2419;51.276;6.472;2024-03-06T10:10:53;9.93;;;6.97;;
4810;SDS011;2419;51.276;6.472;2024-03-06T10:13:22;11.20;;;6.80;;
4810;SDS011;2419;51.276;6.472;2024-03-06T10:15:57;8.90;;;6.70;;
4810;SDS011;2419;51.276;6.472;2024-03-06T10:18:26;10.10;;;6.43;;
4810;SDS011;2419;51.276;6.472;2024-03-06T10:20:55;9.40;;;7.13;;
4810;SDS011;2419;51.276;6.472;2024-03-06T10:23:23;10.00;;;6.90;;
4810;SDS011;2419;51.276;6.472;2024-03-06T10:25:51;10.87;;;7.47;;
4810;SDS011;2419;51.276;6.472;2024-03-06T10:28:20;11.60;;;7.97;;
4810;SDS011;2419;51.276;6.472;2024-03-06T10:30:51;12.70;;;6.67;;
4810;SDS011;2419;51.276;6.472;2024-03-06T10:33:29;10.53;;;6.97;;
4810;SDS011;2419;51.276;6.472;2024-03-06T10:35:59;14.47;;;7.43;;
4810;SDS011;2419;51.276;6.472;2024-03-06T10:38:30;9.00;;;6.30;;
4810;SDS011;2419;51.276;6.472;2024-03-06T10:41:03;11.20;;;6.57;;
4810;SDS011;2419;51.276;6.472;2024-03-06T10:43:34;14.27;;;6.73;;
4810;SDS011;2419;51.276;6.472;2024-03-06T10:46:06;11.30;;;6.70;;
4810;SDS011;2419;51.276;6.472;2024-03-06T10:48:38;10.10;;;7.47;;
4810;SDS011;2419;51.276;6.472;2024-03-06T10:51:08;10.43;;;7.07;;
4810;SDS011;2419;51.276;6.472;2024-03-06T10:53:40;7.13;;;5.87;;
4810;SDS011;2419;51.276;6.472;2024-03-06T10:56:12;10.83;;;6.70;;
4810;SDS011;2419;51.276;6.472;2024-03-06T10:58:41;13.80;;;7.60;;
4810;SDS011;2419;51.276;6.472;2024-03-06T11:01:11;13.80;;;6.90;;
4810;SDS011;2419;51.276;6.472;2024-03-06T11:03:39;10.50;;;6.43;;
4810;SDS011;2419;51.276;6.472;2024-03-06T11:06:08;12.20;;;7.37;;
4810;SDS011;2419;51.276;6.472;2024-03-06T11:08:36;9.10;;;6.60;;
4810;SDS011;2419;51.276;6.472;2024-03-06T11:11:19;11.60;;;7.60;;
4810;SDS011;2419;51.276;6.472;2024-03-06T11:13:49;9.80;;;7.70;;
4810;SDS011;2419;51.276;6.472;2024-03-06T11:16:18;12.97;;;8.13;;
4810;SDS011;2419;51.276;6.472;2024-03-06T11:19:04;14.97;;;8.53;;
4810;SDS011;2419;51.276;6.472;2024-03-06T11:21:33;9.63;;;7.17;;
4810;SDS011;2419;51.276;6.472;2024-03-06T11:24:14;11.33;;;7.93;;
4810;SDS011;2419;51.276;6.472;2024-03-06T11:26:47;15.20;;;7.53;;
4810;SDS011;2419;51.276;6.472;2024-03-06T11:29:22;11.10;;;7.03;;
4810;SDS011;2419;51.276;6.472;2024-03-06T11:32:01;13.30;;;7.57;;
4810;SDS011;2419;51.276;6.472;2024-03-06T11:34:34;11.03;;;7.77;;
4810;SDS011;2419;51.276;6.472;2024-03-06T11:37:03;9.93;;;6.63;;
4810;SDS011;2419;51.276;6.472;2024-03-06T11:39:33;9.80;;;7.80;;
4810;SDS011;2419;51.276;6.472;2024-03-06T11:42:03;10.70;;;7.77;;
4810;SDS011;2419;51.276;6.472;2024-03-06T11:44:34;11.13;;;8.20;;
4810;SDS011;2419;51.276;6.472;2024-03-06T11:47:08;9.60;;;7.73;;
4810;SDS011;2419;51.276;6.472;2024-03-06T11:49:36;11.43;;;8.17;;
4810;SDS011;2419;51.276;6.472;2024-03-06T11:52:06;11.77;;;8.93;;
4810;SDS011;2419;51.276;6.472;2024-03-06T11:54:36;11.77;;;8.20;;
4810;SDS011;2419;51.276;6.472;2024-03-06T11:57:05;9.57;;;7.30;;
4810;SDS011;2419;51.276;6.472;2024-03-06T11:59:33;12.63;;;7.90;;
4810;SDS011;2419;51.276;6.472;2024-03-06T12:02:06;7.87;;;5.93;;
4810;SDS011;2419;51.276;6.472;2024-03-06T12:04:36;9.87;;;7.00;;
4810;SDS011;2419;51.276;6.472;2024-03-06T12:07:06;9.77;;;6.63;;
4810;SDS011;2419;51.276;6.472;2024-03-06T12:09:37;15.03;;;7.50;;
4810;SDS011;2419;51.276;6.472;2024-03-06T12:12:09;9.30;;;6.93;;
4810;SDS011;2419;51.276;6.472;2024-03-06T12:14:39;11.43;;;7.50;;
4810;SDS011;2419;51.276;6.472;2024-03-06T12:17:12;11.70;;;7.30;;
4810;SDS011;2419;51.276;6.472;2024-03-06T12:19:42;11.30;;;6.87;;
4810;SDS011;2419;51.276;6.472;2024-03-06T12:22:11;13.53;;;8.37;;
4810;SDS011;2419;51.276;6.472;2024-03-06T12:24:41;15.63;;;9.33;;
4810;SDS011;2419;51.276;6.472;2024-03-06T12:27:09;12.57;;;8.30;;
4810;SDS011;2419;51.276;6.472;2024-03-06T12:29:39;13.03;;;8.10;;
4810;SDS011;2419;51.276;6.472;2024-03-06T12:32:16;14.20;;;8.80;;
4810;SDS011;2419;51.276;6.472;2024-03-06T12:34:55;11.37;;;8.23;;
4810;SDS011;2419;51.276;6.472;2024-03-06T12:37:29;15.47;;;10.03;;
4810;SDS011;2419;51.276;6.472;2024-03-06T12:39:58;18.40;;;9.77;;
4810;SDS011;2419;51.276;6.472;2024-03-06T12:42:26;12.60;;;8.73;;
4810;SDS011;2419;51.276;6.472;2024-03-06T12:44:55;12.07;;;7.90;;
4810;SDS011;2419;51.276;6.472;2024-03-06T12:47:25;10.93;;;7.43;;
4810;SDS011;2419;51.276;6.472;2024-03-06T12:49:53;9.87;;;7.40;;
4810;SDS011;2419;51.276;6.472;2024-03-06T12:52:21;9.73;;;7.17;;
4810;SDS011;2419;51.276;6.472;2024-03-06T12:54:49;12.93;;;8.07;;
4810;SDS011;2419;51.276;6.472;2024-03-06T12:57:17;10.83;;;7.57;;
4810;SDS011;2419;51.276;6.472;2024-03-06T12:59:45;10.17;;;7.13;;
4810;SDS011;2419;51.276;6.472;2024-03-06T13:02:13;9.60;;;6.87;;
4810;SDS011;2419;51.276;6.472;2024-03-06T13:04:43;11.20;;;7.33;;
4810;SDS011;2419;51.276;6.472;2024-03-06T13:07:11;12.30;;;8.43;;
4810;SDS011;2419;51.276;6.472;2024-03-06T13:09:40;11.00;;;7.87;;
4810;SDS011;2419;51.276;6.472;2024-03-06T13:12:08;10.60;;;8.37;;
4810;SDS011;2419;51.276;6.472;2024-03-06T13:14:37;9.87;;;7.67;;
4810;SDS011;2419;51.276;6.472;2024-03-06T13:17:05;15.40;;;8.60;;
4810;SDS011;2419;51.276;6.472;2024-03-06T13:19:34;13.43;;;8.17;;
4810;SDS011;2419;51.276;6.472;2024-03-06T13:22:03;11.37;;;7.93;;
4810;SDS011;2419;51.276;6.472;2024-03-06T13:24:33;11.47;;;7.10;;
4810;SDS011;2419;51.276;6.472;2024-03-06T13:27:03;11.37;;;7.17;;
4810;SDS011;2419;51.276;6.472;2024-03-06T13:29:32;11.27;;;6.73;;
4810;SDS011;2419;51.276;6.472;2024-03-06T13:32:00;12.83;;;8.27;;
4810;SDS011;2419;51.276;6.472;2024-03-06T13:34:28;14.13;;;9.20;;
4810;SDS011;2419;51.276;6.472;2024-03-06T13:36:58;19.93;;;11.87;;
4810;SDS011;2419;51.276;6.472;2024-03-06T13:39:27;18.87;;;11.10;;
4810;SDS011;2419;51.276;6.472;2024-03-06T13:41:55;18.57;;;10.93;;
4810;SDS011;2419;51.276;6.472;2024-03-06T13:44:24;15.87;;;10.10;;
4810;SDS011;2419;51.276;6.472;2024-03-06T13:46:52;19.50;;;10.83;;
4810;SDS011;2419;51.276;6.472;2024-03-06T13:49:34;17.23;;;9.53;;
4810;SDS011;2419;51.276;6.472;2024-03-06T13:52:04;19.80;;;10.90;;
4810;SDS011;2419;51.276;6.472;2024-03-06T13:54:34;18.33;;;11.30;;
4810;SDS011;2419;51.276;6.472;2024-03-06T13:57:03;21.13;;;11.13;;
4810;SDS011;2419;51.276;6.472;2024-03-06T13:59:32;19.00;;;10.60;;
4810;SDS011;2419;51.276;6.472;2024-03-06T14:02:01;17.20;;;9.50;;
4810;SDS011;2419;51.276;6.472;2024-03-06T14:04:30;16.90;;;10.47;;
4810;SDS011;2419;51.276;6.472;2024-03-06T14:06:58;18.63;;;10.00;;
4810;SDS011;2419;51.276;6.472;2024-03-06T14:09:26;19.13;;;9.53;;
4810;SDS011;2419;51.276;6.472;2024-03-06T14:11:56;21.03;;;10.00;;
4810;SDS011;2419;51.276;6.472;2024-03-06T14:14:25;17.03;;;10.83;;
4810;SDS011;2419;51.276;6.472;2024-03-06T14:16:53;16.67;;;10.27;;
4810;SDS011;2419;51.276;6.472;2024-03-06T14:19:21;19.43;;;10.37;;
4810;SDS011;2419;51.276;6.472;2024-03-06T14:21:49;17.20;;;9.67;;
4810;SDS011;2419;51.276;6.472;2024-03-06T14:24:18;18.33;;;10.57;;
4810;SDS011;2419;51.276;6.472;2024-03-06T14:26:46;16.20;;;9.30;;
4810;SDS011;2419;51.276;6.472;2024-03-06T14:29:17;18.37;;;9.70;;
4810;SDS011;2419;51.276;6.472;2024-03-06T14:31:45;16.13;;;9.00;;
4810;SDS011;2419;51.276;6.472;2024-03-06T14:34:14;16.93;;;8.97;;
4810;SDS011;2419;51.276;6.472;2024-03-06T14:36:42;15.70;;;9.57;;
4810;SDS011;2419;51.276;6.472;2024-03-06T14:39:10;16.93;;;9.73;;
4810;SDS011;2419;51.276;6.472;2024-03-06T14:41:39;15.87;;;9.60;;
4810;SDS011;2419;51.276;6.472;2024-03-06T14:44:09;16.93;;;9.70;;
4810;SDS011;2419;51.276;6.472;2024-03-06T14:46:38;20.63;;;10.43;;
4810;SDS011;2419;51.276;6.472;2024-03-06T14:49:07;16.90;;;9.10;;
4810;SDS011;2419;51.276;6.472;2024-03-06T14:51:35;17.63;;;9.67;;
4810;SDS011;2419;51.276;6.472;2024-03-06T14:54:04;15.77;;;9.20;;
4810;SDS011;2419;51.276;6.472;2024-03-06T14:56:32;20.87;;;9.80;;
4810;SDS011;2419;51.276;6.472;2024-03-06T14:59:00;13.53;;;8.47;;
4810;SDS011;2419;51.276;6.472;2024-03-06T15:01:28;19.00;;;9.00;;
4810;SDS011;2419;51.276;6.472;2024-03-06T15:03:58;19.13;;;10.03;;
4810;SDS011;2419;51.276;6.472;2024-03-06T15:06:26;15.77;;;8.63;;
4810;SDS011;2419;51.276;6.472;2024-03-06T15:08:54;15.43;;;8.93;;
4810;SDS011;2419;51.276;6.472;2024-03-06T15:11:22;19.03;;;9.03;;
4810;SDS011;2419;51.276;6.472;2024-03-06T15:13:51;12.20;;;8.23;;
4810;SDS011;2419;51.276;6.472;2024-03-06T15:16:19;13.20;;;7.90;;